Terminal Aerodrome Forecast
Issued by NWS Cleveland, OH

Home | Current Version | Previous Version | Text Only | Print | Product List | Glossary On
Versions: 1 2 3 4 5 6 7 8 9 10 11 12 13 14 15 16 17 18 19 20 21
000
FTUS41 KCLE 180500
TAFTOL
TAF
KTOL 180520Z 1806/1906 28010KT P6SM OVC025
     FM182100 28006KT P6SM OVC035
     FM190300 28005KT P6SM OVC028=

USA.gov is the U.S. government's official web portal to all federal, state and local government web resources and services.